Terminal Aerodrome Forecast
Issued by NWS

Current Version | Previous Version | Text Only | Print | Product List | Glossary On
Versions: 1 2 3 4 5 6 7 8 9 10 11 12 13 14 15 16 17 18 19 20 21 22 23 24 25 26 27 28 29 30 31 32 33 34 35 36 37 38 39 40 41 42 43 44
348
FTUS43 KFGF 211743 CCA
TAFTVF
TAF COR
KTVF 211743Z 2118/2218 VRB06KT P6SM SCT100
     FM220100 30003KT P6SM OVC070
     FM220500 06003KT 5SM BR OVC025
     FM221000 03005KT 1/2SM FG OVC005 PROB30 2212/2216 1/4SM -RA FG
     FM221600 01008KT 1 1/2SM BR OVC009=

USA.gov is the U.S. government's official web portal to all federal, state and local government web resources and services.